sensor_id;sensor_type;location;lat;lon;timestamp;pressure;altitude;pressure_sealevel;temperature;humidity
22930;BME280;11630;42.660;23.292;2022-12-26T00:02:14;68009.73;;;4.25;100.00
22930;BME280;11630;42.660;23.292;2022-12-26T00:04:47;68019.47;;;4.34;100.00
22930;BME280;11630;42.660;23.292;2022-12-26T00:07:18;67994.66;;;4.18;100.00
22930;BME280;11630;42.660;23.292;2022-12-26T00:09:49;68001.66;;;4.22;100.00
22930;BME280;11630;42.660;23.292;2022-12-26T00:12:20;67998.92;;;4.15;100.00
22930;BME280;11630;42.660;23.292;2022-12-26T00:14:51;67997.59;;;4.17;100.00
22930;BME280;11630;42.660;23.292;2022-12-26T00:17:22;67984.08;;;4.05;100.00
22930;BME280;11630;42.660;23.292;2022-12-26T00:19:53;67979.47;;;3.99;100.00
22930;BME280;11630;42.660;23.292;2022-12-26T00:22:24;67994.61;;;4.13;100.00
22930;BME280;11630;42.660;23.292;2022-12-26T00:24:55;67988.94;;;4.07;100.00
22930;BME280;11630;42.660;23.292;2022-12-26T00:27:25;68002.98;;;4.20;100.00
22930;BME280;11630;42.660;23.292;2022-12-26T00:29:56;67987.86;;;4.08;100.00
22930;BME280;11630;42.660;23.292;2022-12-26T00:32:27;67990.56;;;4.11;100.00
22930;BME280;11630;42.660;23.292;2022-12-26T00:34:58;67993.55;;;4.12;100.00
22930;BME280;11630;42.660;23.292;2022-12-26T00:37:29;67986.25;;;4.07;100.00
22930;BME280;11630;42.660;23.292;2022-12-26T00:40:00;67977.59;;;3.99;100.00
22930;BME280;11630;42.660;23.292;2022-12-26T00:42:31;67947.59;;;3.70;100.00
22930;BME280;11630;42.660;23.292;2022-12-26T00:45:02;67951.06;;;3.70;100.00
22930;BME280;11630;42.660;23.292;2022-12-26T00:47:33;67962.96;;;3.80;100.00
22930;BME280;11630;42.660;23.292;2022-12-26T00:50:05;67959.19;;;3.79;100.00
22930;BME280;11630;42.660;23.292;2022-12-26T00:52:35;67973.23;;;3.90;100.00
22930;BME280;11630;42.660;23.292;2022-12-26T00:55:05;67961.63;;;3.83;100.00
22930;BME280;11630;42.660;23.292;2022-12-26T00:57:36;67971.09;;;3.90;100.00
22930;BME280;11630;42.660;23.292;2022-12-26T01:00:09;67967.59;;;3.91;100.00
22930;BME280;11630;42.660;23.292;2022-12-26T01:02:39;67959.27;;;3.87;100.00
22930;BME280;11630;42.660;23.292;2022-12-26T01:05:11;67962.20;;;3.86;100.00
22930;BME280;11630;42.660;23.292;2022-12-26T01:07:42;67957.02;;;3.78;100.00
22930;BME280;11630;42.660;23.292;2022-12-26T01:10:13;67953.50;;;3.73;100.00
22930;BME280;11630;42.660;23.292;2022-12-26T01:12:43;67956.77;;;3.78;100.00
22930;BME280;11630;42.660;23.292;2022-12-26T01:15:14;67948.67;;;3.71;100.00
22930;BME280;11630;42.660;23.292;2022-12-26T01:17:44;67945.94;;;3.66;100.00
22930;BME280;11630;42.660;23.292;2022-12-26T01:20:15;67957.04;;;3.80;100.00
22930;BME280;11630;42.660;23.292;2022-12-26T01:22:45;67953.23;;;3.72;100.00
22930;BME280;11630;42.660;23.292;2022-12-26T01:25:16;67945.42;;;3.68;100.00
22930;BME280;11630;42.660;23.292;2022-12-26T01:27:49;67960.52;;;3.77;100.00
22930;BME280;11630;42.660;23.292;2022-12-26T01:30:19;67964.84;;;3.83;100.00
22930;BME280;11630;42.660;23.292;2022-12-26T01:32:50;67963.49;;;3.81;100.00
22930;BME280;11630;42.660;23.292;2022-12-26T01:35:21;67970.56;;;3.92;100.00
22930;BME280;11630;42.660;23.292;2022-12-26T01:37:52;67960.30;;;3.83;100.00
22930;BME280;11630;42.660;23.292;2022-12-26T01:40:23;67951.09;;;3.72;100.00
22930;BME280;11630;42.660;23.292;2022-12-26T01:42:53;67943.82;;;3.69;100.00
22930;BME280;11630;42.660;23.292;2022-12-26T01:45:27;67948.67;;;3.71;100.00
22930;BME280;11630;42.660;23.292;2022-12-26T01:48:19;67952.73;;;3.76;100.00
22930;BME280;11630;42.660;23.292;2022-12-26T01:50:55;67943.25;;;3.66;100.00
22930;BME280;11630;42.660;23.292;2022-12-26T01:53:40;67939.20;;;3.61;100.00
22930;BME280;11630;42.660;23.292;2022-12-26T01:56:12;67963.80;;;3.85;100.00
22930;BME280;11630;42.660;23.292;2022-12-26T01:58:47;67951.38;;;3.76;100.00
22930;BME280;11630;42.660;23.292;2022-12-26T02:01:17;67946.47;;;3.64;100.00
22930;BME280;11630;42.660;23.292;2022-12-26T02:03:50;67944.59;;;3.66;100.00
22930;BME280;11630;42.660;23.292;2022-12-26T02:06:37;67940.53;;;3.61;100.00
22930;BME280;11630;42.660;23.292;2022-12-26T02:09:08;67931.63;;;3.54;100.00
22930;BME280;11630;42.660;23.292;2022-12-26T02:11:41;67927.09;;;3.56;100.00
22930;BME280;11630;42.660;23.292;2022-12-26T02:14:11;67939.77;;;3.64;100.00
22930;BME280;11630;42.660;23.292;2022-12-26T02:16:43;67936.00;;;3.63;100.00
22930;BME280;11630;42.660;23.292;2022-12-26T02:19:29;67925.16;;;3.51;100.00
22930;BME280;11630;42.660;23.292;2022-12-26T02:30:41;67886.21;;;3.10;100.00
22930;BME280;11630;42.660;23.292;2022-12-26T02:33:36;67878.72;;;3.10;100.00
22930;BME280;11630;42.660;23.292;2022-12-26T02:36:14;67887.61;;;3.15;100.00
22930;BME280;11630;42.660;23.292;2022-12-26T02:39:08;67894.06;;;3.18;100.00
22930;BME280;11630;42.660;23.292;2022-12-26T02:56:36;67871.13;;;2.99;100.00
22930;BME280;11630;42.660;23.292;2022-12-26T02:59:37;67880.83;;;3.07;100.00
22930;BME280;11630;42.660;23.292;2022-12-26T03:05:17;67876.77;;;3.00;100.00
22930;BME280;11630;42.660;23.292;2022-12-26T03:08:05;67871.67;;;3.02;100.00
22930;BME280;11630;42.660;23.292;2022-12-26T03:10:55;67893.00;;;3.20;100.00
22930;BME280;11630;42.660;23.292;2022-12-26T03:13:43;67886.52;;;3.14;100.00
22930;BME280;11630;42.660;23.292;2022-12-26T03:16:17;67876.52;;;3.03;100.00
22930;BME280;11630;42.660;23.292;2022-12-26T03:19:06;67869.25;;;3.01;100.00
22930;BME280;11630;42.660;23.292;2022-12-26T03:21:39;67878.41;;;3.06;100.00
22930;BME280;11630;42.660;23.292;2022-12-26T03:24:11;67890.56;;;3.16;100.00
22930;BME280;11630;42.660;23.292;2022-12-26T03:26:47;67884.08;;;3.10;100.00
22930;BME280;11630;42.660;23.292;2022-12-26T03:29:19;67885.17;;;3.11;100.00
22930;BME280;11630;42.660;23.292;2022-12-26T03:32:09;67890.81;;;3.15;100.00
22930;BME280;11630;42.660;23.292;2022-12-26T03:34:45;67862.76;;;2.92;100.00
22930;BME280;11630;42.660;23.292;2022-12-26T03:43:31;67868.96;;;2.97;100.00
22930;BME280;11630;42.660;23.292;2022-12-26T03:46:24;67871.91;;;2.98;100.00
22930;BME280;11630;42.660;23.292;2022-12-26T03:49:28;67863.86;;;2.96;100.00
22930;BME280;11630;42.660;23.292;2022-12-26T03:55:27;67859.80;;;2.91;100.00
22930;BME280;11630;42.660;23.292;2022-12-26T04:01:13;67830.63;;;2.64;100.00
22930;BME280;11630;42.660;23.292;2022-12-26T04:04:00;67847.91;;;2.80;100.00
22930;BME280;11630;42.660;23.292;2022-12-26T04:07:06;67871.90;;;2.96;100.00
22930;BME280;11630;42.660;23.292;2022-12-26T04:09:59;67847.09;;;2.78;100.00
22930;BME280;11630;42.660;23.292;2022-12-26T04:12:46;67828.20;;;2.63;100.00
22930;BME280;11630;42.660;23.292;2022-12-26T04:15:44;67854.64;;;2.85;100.00
22930;BME280;11630;42.660;23.292;2022-12-26T04:18:55;67855.44;;;2.82;100.00
22930;BME280;11630;42.660;23.292;2022-12-26T04:21:42;67861.11;;;2.88;100.00
22930;BME280;11630;42.660;23.292;2022-12-26T04:24:30;67858.98;;;2.89;100.00
22930;BME280;11630;42.660;23.292;2022-12-26T04:27:20;67841.67;;;2.70;100.00
22930;BME280;11630;42.660;23.292;2022-12-26T04:30:07;67840.87;;;2.71;100.00
22930;BME280;11630;42.660;23.292;2022-12-26T04:32:56;67844.94;;;2.76;100.00
22930;BME280;11630;42.660;23.292;2022-12-26T04:36:00;67849.82;;;2.83;100.00
22930;BME280;11630;42.660;23.292;2022-12-26T04:38:46;67847.09;;;2.78;100.00
22930;BME280;11630;42.660;23.292;2022-12-26T04:41:32;67853.05;;;2.86;100.00
22930;BME280;11630;42.660;23.292;2022-12-26T04:44:19;67855.45;;;2.84;100.00
22930;BME280;11630;42.660;23.292;2022-12-26T04:46:51;67857.36;;;2.87;100.00
22930;BME280;11630;42.660;23.292;2022-12-26T04:49:22;67836.06;;;2.71;100.00
22930;BME280;11630;42.660;23.292;2022-12-26T04:52:10;67828.16;;;2.55;100.00
22930;BME280;11630;42.660;23.292;2022-12-26T04:54:41;67816.34;;;2.52;100.00
22930;BME280;11630;42.660;23.292;2022-12-26T04:57:11;67822.28;;;2.57;100.00
22930;BME280;11630;42.660;23.292;2022-12-26T04:59:41;67817.92;;;2.48;100.00
22930;BME280;11630;42.660;23.292;2022-12-26T05:02:12;67817.68;;;2.52;100.00
22930;BME280;11630;42.660;23.292;2022-12-26T05:04:59;67811.20;;;2.46;100.00
22930;BME280;11630;42.660;23.292;2022-12-26T05:07:46;67805.25;;;2.38;100.00
22930;BME280;11630;42.660;23.292;2022-12-26T05:10:34;67798.49;;;2.33;100.00
22930;BME280;11630;42.660;23.292;2022-12-26T05:13:04;67817.94;;;2.51;100.00
22930;BME280;11630;42.660;23.292;2022-12-26T05:15:36;67815.50;;;2.47;100.00
22930;BME280;11630;42.660;23.292;2022-12-26T05:18:23;67801.45;;;2.32;100.00
22930;BME280;11630;42.660;23.292;2022-12-26T05:21:13;67813.06;;;2.44;100.00
22930;BME280;11630;42.660;23.292;2022-12-26T05:24:00;67824.67;;;2.56;100.00
22930;BME280;11630;42.660;23.292;2022-12-26T05:26:48;67833.31;;;2.64;100.00
22930;BME280;11630;42.660;23.292;2022-12-26T05:29:35;67839.53;;;2.71;100.00
22930;BME280;11630;42.660;23.292;2022-12-26T05:32:06;67833.56;;;2.63;100.00
22930;BME280;11630;42.660;23.292;2022-12-26T05:34:37;67835.47;;;2.66;100.00
22930;BME280;11630;42.660;23.292;2022-12-26T05:37:09;67820.88;;;2.50;100.00
22930;BME280;11630;42.660;23.292;2022-12-26T05:39:40;67809.55;;;2.42;100.00
22930;BME280;11630;42.660;23.292;2022-12-26T05:42:11;67814.40;;;2.44;100.00
22930;BME280;11630;42.660;23.292;2022-12-26T05:44:41;67822.81;;;2.58;100.00
22930;BME280;11630;42.660;23.292;2022-12-26T05:47:12;67836.30;;;2.68;100.00
22930;BME280;11630;42.660;23.292;2022-12-26T05:49:42;67839.53;;;2.71;100.00
22930;BME280;11630;42.660;23.292;2022-12-26T05:52:12;67839.77;;;2.67;100.00
22930;BME280;11630;42.660;23.292;2022-12-26T05:54:44;67840.08;;;2.71;100.00
22930;BME280;11630;42.660;23.292;2022-12-26T05:57:15;67845.71;;;2.73;100.00
22930;BME280;11630;42.660;23.292;2022-12-26T05:59:46;67854.63;;;2.82;100.00
22930;BME280;11630;42.660;23.292;2022-12-26T06:02:18;67861.44;;;2.95;100.00
22930;BME280;11630;42.660;23.292;2022-12-26T06:04:49;67849.77;;;2.78;100.00
22930;BME280;11630;42.660;23.292;2022-12-26T06:07:19;67854.92;;;2.84;100.00
22930;BME280;11630;42.660;23.292;2022-12-26T06:09:52;67834.96;;;2.68;100.00
22930;BME280;11630;42.660;23.292;2022-12-26T06:12:24;67828.74;;;2.61;100.00
22930;BME280;11630;42.660;23.292;2022-12-26T06:14:55;67835.51;;;2.71;100.00
22930;BME280;11630;42.660;23.292;2022-12-26T06:17:25;67842.27;;;2.76;100.00
22930;BME280;11630;42.660;23.292;2022-12-26T06:19:56;67844.38;;;2.73;100.00
22930;BME280;11630;42.660;23.292;2022-12-26T06:22:29;67875.71;;;3.04;100.00
22930;BME280;11630;42.660;23.292;2022-12-26T06:24:59;67867.61;;;2.94;100.00
22930;BME280;11630;42.660;23.292;2022-12-26T06:27:31;67862.19;;;2.89;100.00
22930;BME280;11630;42.660;23.292;2022-12-26T06:30:01;67866.27;;;2.94;100.00
22930;BME280;11630;42.660;23.292;2022-12-26T06:32:32;67848.44;;;2.80;100.00
22930;BME280;11630;42.660;23.292;2022-12-26T06:35:03;67849.00;;;2.81;100.00
22930;BME280;11630;42.660;23.292;2022-12-26T06:37:34;67848.17;;;2.79;100.00
22930;BME280;11630;42.660;23.292;2022-12-26T06:40:08;67845.45;;;2.74;100.00
22930;BME280;11630;42.660;23.292;2022-12-26T06:42:39;67851.95;;;2.82;100.00
22930;BME280;11630;42.660;23.292;2022-12-26T06:45:10;67840.61;;;2.72;100.00
22930;BME280;11630;42.660;23.292;2022-12-26T06:47:42;67846.54;;;2.75;100.00
22930;BME280;11630;42.660;23.292;2022-12-26T06:50:13;67842.22;;;2.73;100.00
22930;BME280;11630;42.660;23.292;2022-12-26T06:52:44;67844.39;;;2.75;100.00
22930;BME280;11630;42.660;23.292;2022-12-26T06:55:15;67863.84;;;2.93;100.00
22930;BME280;11630;42.660;23.292;2022-12-26T06:57:45;67878.41;;;3.06;100.00
22930;BME280;11630;42.660;23.292;2022-12-26T07:00:16;67901.63;;;3.25;100.00
22930;BME280;11630;42.660;23.292;2022-12-26T07:02:50;67917.58;;;3.41;100.00
22930;BME280;11630;42.660;23.292;2022-12-26T07:05:21;67908.14;;;3.36;100.00
22930;BME280;11630;42.660;23.292;2022-12-26T07:07:51;67920.05;;;3.47;100.00
22930;BME280;11630;42.660;23.292;2022-12-26T07:10:21;67962.69;;;3.79;100.00
22930;BME280;11630;42.660;23.292;2022-12-26T07:12:51;67996.50;;;4.14;100.00
22930;BME280;11630;42.660;23.292;2022-12-26T07:15:22;68030.84;;;4.47;100.00
22930;BME280;11630;42.660;23.292;2022-12-26T07:17:53;68107.94;;;5.16;100.00
22930;BME280;11630;42.660;23.292;2022-12-26T07:20:25;68147.74;;;5.54;100.00
22930;BME280;11630;42.660;23.292;2022-12-26T07:22:56;68164.51;;;5.67;100.00
22930;BME280;11630;42.660;23.292;2022-12-26T07:25:27;68204.91;;;6.08;100.00
22930;BME280;11630;42.660;23.292;2022-12-26T07:27:58;68215.20;;;6.17;100.00
22930;BME280;11630;42.660;23.292;2022-12-26T07:30:28;68268.55;;;6.62;100.00
22930;BME280;11630;42.660;23.292;2022-12-26T07:33:00;68294.84;;;6.87;100.00
22930;BME280;11630;42.660;23.292;2022-12-26T07:35:31;68333.91;;;7.26;100.00
22930;BME280;11630;42.660;23.292;2022-12-26T07:38:01;68376.76;;;7.67;100.00
22930;BME280;11630;42.660;23.292;2022-12-26T07:40:32;68416.33;;;7.96;100.00
22930;BME280;11630;42.660;23.292;2022-12-26T07:43:04;68425.55;;;8.05;100.00
22930;BME280;11630;42.660;23.292;2022-12-26T07:45:34;68469.84;;;8.51;100.00
22930;BME280;11630;42.660;23.292;2022-12-26T07:48:05;68482.86;;;8.61;100.00
22930;BME280;11630;42.660;23.292;2022-12-26T07:50:36;68498.06;;;8.75;100.00
22930;BME280;11630;42.660;23.292;2022-12-26T07:53:06;68544.22;;;9.12;100.00
22930;BME280;11630;42.660;23.292;2022-12-26T07:55:37;68506.48;;;8.81;100.00
22930;BME280;11630;42.660;23.292;2022-12-26T07:58:08;68519.77;;;8.90;100.00
22930;BME280;11630;42.660;23.292;2022-12-26T08:00:38;68545.59;;;9.17;100.00
22930;BME280;11630;42.660;23.292;2022-12-26T08:03:12;68565.70;;;9.38;100.00
22930;BME280;11630;42.660;23.292;2022-12-26T08:05:47;68606.73;;;9.72;100.00
22930;BME280;11630;42.660;23.292;2022-12-26T08:08:18;68606.17;;;9.71;100.00
22930;BME280;11630;42.660;23.292;2022-12-26T08:10:56;68664.64;;;10.26;100.00
22930;BME280;11630;42.660;23.292;2022-12-26T08:13:20;68657.86;;;10.21;100.00
22930;BME280;11630;42.660;23.292;2022-12-26T08:15:50;68660.84;;;10.20;100.00
22930;BME280;11630;42.660;23.292;2022-12-26T08:18:21;68729.36;;;10.77;100.00
22930;BME280;11630;42.660;23.292;2022-12-26T08:20:52;68726.11;;;10.82;97.24
22930;BME280;11630;42.660;23.292;2022-12-26T08:23:23;68695.92;;;10.56;97.61
22930;BME280;11630;42.660;23.292;2022-12-26T08:25:53;68670.10;;;10.36;98.62
22930;BME280;11630;42.660;23.292;2022-12-26T08:28:24;68716.02;;;10.69;97.39
22930;BME280;11630;42.660;23.292;2022-12-26T08:30:55;68694.56;;;10.58;96.89
22930;BME280;11630;42.660;23.292;2022-12-26T08:33:26;68731.55;;;10.89;96.97
22930;BME280;11630;42.660;23.292;2022-12-26T08:36:06;68773.17;;;11.24;95.40
22930;BME280;11630;42.660;23.292;2022-12-26T08:38:33;68830.91;;;11.79;93.24
22930;BME280;11630;42.660;23.292;2022-12-26T08:41:06;68869.84;;;12.08;91.22
22930;BME280;11630;42.660;23.292;2022-12-26T08:43:38;68848.06;;;11.96;91.15
22930;BME280;11630;42.660;23.292;2022-12-26T08:46:10;68933.32;;;12.62;87.64
22930;BME280;11630;42.660;23.292;2022-12-26T08:48:41;68781.62;;;11.33;90.24
22930;BME280;11630;42.660;23.292;2022-12-26T08:51:14;68901.44;;;12.47;88.55
22930;BME280;11630;42.660;23.292;2022-12-26T08:53:44;68948.05;;;12.88;86.00
22930;BME280;11630;42.660;23.292;2022-12-26T08:56:16;68935.77;;;12.73;86.54
22930;BME280;11630;42.660;23.292;2022-12-26T08:58:46;68939.58;;;12.74;85.27
22930;BME280;11630;42.660;23.292;2022-12-26T09:01:20;68956.52;;;12.90;84.10
22930;BME280;11630;42.660;23.292;2022-12-26T09:03:54;68992.22;;;13.16;83.31
22930;BME280;11630;42.660;23.292;2022-12-26T09:06:30;68981.02;;;13.17;82.82
22930;BME280;11630;42.660;23.292;2022-12-26T09:09:00;69002.84;;;13.37;82.13
22930;BME280;11630;42.660;23.292;2022-12-26T09:11:31;68994.66;;;13.27;82.86
22930;BME280;11630;42.660;23.292;2022-12-26T09:14:03;68970.41;;;13.06;83.02
22930;BME280;11630;42.660;23.292;2022-12-26T09:16:38;68897.08;;;12.33;86.49
22930;BME280;11630;42.660;23.292;2022-12-26T09:19:10;68946.13;;;12.85;84.68
22930;BME280;11630;42.660;23.292;2022-12-26T09:21:41;68853.51;;;11.96;89.13
22930;BME280;11630;42.660;23.292;2022-12-26T09:24:15;68767.18;;;11.21;90.75
22930;BME280;11630;42.660;23.292;2022-12-26T09:26:47;68781.62;;;11.28;90.68
22930;BME280;11630;42.660;23.292;2022-12-26T09:29:18;68710.88;;;10.68;94.74
22930;BME280;11630;42.660;23.292;2022-12-26T09:31:48;68745.98;;;11.01;93.48
22930;BME280;11630;42.660;23.292;2022-12-26T09:34:19;68694.30;;;10.54;96.33
22930;BME280;11630;42.660;23.292;2022-12-26T09:36:48;68725.55;;;10.76;94.16
22930;BME280;11630;42.660;23.292;2022-12-26T09:39:19;68733.47;;;10.92;94.32
22930;BME280;11630;42.660;23.292;2022-12-26T09:42:25;68731.28;;;10.85;95.20
22930;BME280;11630;42.660;23.292;2022-12-26T09:47:33;68660.58;;;10.26;96.31
22930;BME280;11630;42.660;23.292;2022-12-26T09:53:00;68714.95;;;10.71;94.87
22930;BME280;11630;42.660;23.292;2022-12-26T09:55:34;68716.58;;;10.72;95.53
22930;BME280;11630;42.660;23.292;2022-12-26T09:58:30;68698.64;;;10.56;95.63
22930;BME280;11630;42.660;23.292;2022-12-26T10:01:14;68691.30;;;10.53;96.16
22930;BME280;11630;42.660;23.292;2022-12-26T10:03:53;68557.26;;;9.26;100.00
22930;BME280;11630;42.660;23.292;2022-12-26T10:06:33;68593.41;;;9.63;100.00
22930;BME280;11630;42.660;23.292;2022-12-26T10:09:05;68601.02;;;9.68;100.00
22930;BME280;11630;42.660;23.292;2022-12-26T10:11:51;68608.09;;;9.74;100.00
22930;BME280;11630;42.660;23.292;2022-12-26T10:14:43;68596.38;;;9.62;100.00
22930;BME280;11630;42.660;23.292;2022-12-26T10:17:21;68618.41;;;9.84;100.00
22930;BME280;11630;42.660;23.292;2022-12-26T10:20:04;68620.58;;;9.83;100.00
22930;BME280;11630;42.660;23.292;2022-12-26T10:25:27;68600.75;;;9.69;100.00
22930;BME280;11630;42.660;23.292;2022-12-26T10:27:56;68612.98;;;9.81;100.00
22930;BME280;11630;42.660;23.292;2022-12-26T10:30:29;68639.89;;;9.99;100.00
22930;BME280;11630;42.660;23.292;2022-12-26T10:33:00;68683.67;;;10.41;99.00
22930;BME280;11630;42.660;23.292;2022-12-26T10:35:41;68738.08;;;10.95;96.69
22930;BME280;11630;42.660;23.292;2022-12-26T10:38:18;68748.14;;;11.03;94.13
22930;BME280;11630;42.660;23.292;2022-12-26T10:40:46;68816.48;;;11.64;92.29
22930;BME280;11630;42.660;23.292;2022-12-26T10:43:26;68865.21;;;12.05;89.21
22930;BME280;11630;42.660;23.292;2022-12-26T10:48:50;68910.14;;;12.42;86.46
22930;BME280;11630;42.660;23.292;2022-12-26T10:51:21;68806.95;;;11.57;90.71
22930;BME280;11630;42.660;23.292;2022-12-26T10:53:55;68799.30;;;11.50;89.91
22930;BME280;11630;42.660;23.292;2022-12-26T10:56:27;68831.44;;;11.77;90.08
22930;BME280;11630;42.660;23.292;2022-12-26T10:59:02;68821.66;;;11.70;89.47
22930;BME280;11630;42.660;23.292;2022-12-26T11:01:37;68674.44;;;10.37;94.98
22930;BME280;11630;42.660;23.292;2022-12-26T11:04:24;68760.95;;;11.16;92.76
22930;BME280;11630;42.660;23.292;2022-12-26T11:06:57;68769.09;;;11.21;92.09
22930;BME280;11630;42.660;23.292;2022-12-26T11:09:35;68769.37;;;11.25;92.14
22930;BME280;11630;42.660;23.292;2022-12-26T11:12:17;68667.09;;;10.32;95.79
22930;BME280;11630;42.660;23.292;2022-12-26T11:14:42;68704.63;;;10.66;96.04
22930;BME280;11630;42.660;23.292;2022-12-26T11:17:27;68650.23;;;10.14;97.63
22930;BME280;11630;42.660;23.292;2022-12-26T11:22:43;68647.23;;;10.05;99.16
22930;BME280;11630;42.660;23.292;2022-12-26T11:25:22;68610.27;;;9.79;100.00
22930;BME280;11630;42.660;23.292;2022-12-26T11:27:54;68608.61;;;9.70;100.00
22930;BME280;11630;42.660;23.292;2022-12-26T11:30:30;68634.45;;;9.97;100.00
22930;BME280;11630;42.660;23.292;2022-12-26T11:35:48;68651.61;;;10.16;98.76
22930;BME280;11630;42.660;23.292;2022-12-26T11:38:18;68669.55;;;10.30;98.21
22930;BME280;11630;42.660;23.292;2022-12-26T11:41:09;68660.28;;;10.22;98.72
22930;BME280;11630;42.660;23.292;2022-12-26T11:44:02;68660.28;;;10.22;98.33
22930;BME280;11630;42.660;23.292;2022-12-26T11:46:33;68660.28;;;10.22;98.76
22930;BME280;11630;42.660;23.292;2022-12-26T11:49:04;68671.46;;;10.36;98.27
22930;BME280;11630;42.660;23.292;2022-12-26T11:51:40;68668.45;;;10.32;98.27
22930;BME280;11630;42.660;23.292;2022-12-26T11:54:19;68662.20;;;10.25;99.04
22930;BME280;11630;42.660;23.292;2022-12-26T11:56:48;68654.33;;;10.19;98.65
22930;BME280;11630;42.660;23.292;2022-12-26T11:59:21;68653.23;;;10.13;99.44
22930;BME280;11630;42.660;23.292;2022-12-26T12:04:41;68685.59;;;10.46;98.12
22930;BME280;11630;42.660;23.292;2022-12-26T12:10:37;68680.14;;;10.44;97.07
22930;BME280;11630;42.660;23.292;2022-12-26T12:13:20;68694.00;;;10.50;98.16
22930;BME280;11630;42.660;23.292;2022-12-26T12:16:06;68682.86;;;10.41;97.69
22930;BME280;11630;42.660;23.292;2022-12-26T12:21:53;68706.52;;;10.67;96.36
22930;BME280;11630;42.660;23.292;2022-12-26T12:27:30;68710.33;;;10.68;95.68
22930;BME280;11630;42.660;23.292;2022-12-26T12:33:04;68686.95;;;10.49;96.71
22930;BME280;11630;42.660;23.292;2022-12-26T12:35:47;68695.36;;;10.53;96.73
22930;BME280;11630;42.660;23.292;2022-12-26T12:41:10;68713.59;;;10.71;95.89
22930;BME280;11630;42.660;23.292;2022-12-26T12:43:47;68719.03;;;10.75;95.62
22930;BME280;11630;42.660;23.292;2022-12-26T12:46:22;68721.48;;;10.76;95.50
22930;BME280;11630;42.660;23.292;2022-12-26T12:49:25;68727.45;;;10.77;95.46
22930;BME280;11630;42.660;23.292;2022-12-26T13:00:15;68727.47;;;10.84;94.74
22930;BME280;11630;42.660;23.292;2022-12-26T13:06:07;68730.19;;;10.84;94.40
22930;BME280;11630;42.660;23.292;2022-12-26T13:08:44;68716.58;;;10.74;94.09
22930;BME280;11630;42.660;23.292;2022-12-26T13:11:24;68706.25;;;10.68;94.65
22930;BME280;11630;42.660;23.292;2022-12-26T13:14:00;68722.57;;;10.80;93.45
22930;BME280;11630;42.660;23.292;2022-12-26T13:16:45;68722.84;;;10.76;93.15
22930;BME280;11630;42.660;23.292;2022-12-26T13:19:20;68727.47;;;10.84;92.80
22930;BME280;11630;42.660;23.292;2022-12-26T13:21:46;68734.53;;;10.88;92.99
22930;BME280;11630;42.660;23.292;2022-12-26T13:24:34;68730.72;;;10.85;93.02
22930;BME280;11630;42.660;23.292;2022-12-26T13:29:43;68738.07;;;10.90;92.66
22930;BME280;11630;42.660;23.292;2022-12-26T13:32:22;68734.53;;;10.88;92.80
22930;BME280;11630;42.660;23.292;2022-12-26T13:34:53;68731.81;;;10.88;93.03
22930;BME280;11630;42.660;23.292;2022-12-26T13:37:55;68730.19;;;10.89;92.62
22930;BME280;11630;42.660;23.292;2022-12-26T13:40:28;68733.20;;;10.93;93.27
22930;BME280;11630;42.660;23.292;2022-12-26T13:43:14;68720.92;;;10.73;95.68
22930;BME280;11630;42.660;23.292;2022-12-26T13:45:57;68700.00;;;10.66;96.72
22930;BME280;11630;42.660;23.292;2022-12-26T13:51:03;68690.20;;;10.47;97.85
22930;BME280;11630;42.660;23.292;2022-12-26T13:53:38;68672.81;;;10.36;98.91
22930;BME280;11630;42.660;23.292;2022-12-26T13:59:11;68650.52;;;10.13;99.63
22930;BME280;11630;42.660;23.292;2022-12-26T14:01:54;68640.17;;;10.03;100.00
22930;BME280;11630;42.660;23.292;2022-12-26T14:07:40;68642.08;;;10.04;100.00
22930;BME280;11630;42.660;23.292;2022-12-26T14:13:26;68602.92;;;9.73;100.00
22930;BME280;11630;42.660;23.292;2022-12-26T14:15:55;68602.66;;;9.69;100.00
22930;BME280;11630;42.660;23.292;2022-12-26T14:24:56;68581.98;;;9.45;100.00
22930;BME280;11630;42.660;23.292;2022-12-26T14:26:58;68558.09;;;9.31;100.00
22930;BME280;11630;42.660;23.292;2022-12-26T14:29:33;68545.33;;;9.20;100.00
22930;BME280;11630;42.660;23.292;2022-12-26T14:34:59;68535.80;;;9.06;100.00
22930;BME280;11630;42.660;23.292;2022-12-26T14:37:40;68533.66;;;9.09;100.00
22930;BME280;11630;42.660;23.292;2022-12-26T14:40:17;68534.19;;;9.09;100.00
22930;BME280;11630;42.660;23.292;2022-12-26T14:45:49;68529.56;;;9.04;100.00
22930;BME280;11630;42.660;23.292;2022-12-26T14:54:14;68510.02;;;8.86;100.00
22930;BME280;11630;42.660;23.292;2022-12-26T14:56:39;68470.11;;;8.53;100.00
22930;BME280;11630;42.660;23.292;2022-12-26T14:59:25;68451.11;;;8.33;100.00
22930;BME280;11630;42.660;23.292;2022-12-26T15:02:28;68449.48;;;8.32;100.00
22930;BME280;11630;42.660;23.292;2022-12-26T15:13:29;68406.86;;;7.91;100.00
22930;BME280;11630;42.660;23.292;2022-12-26T15:22:08;68378.94;;;7.69;100.00
22930;BME280;11630;42.660;23.292;2022-12-26T15:27:45;68342.02;;;7.31;100.00
22930;BME280;11630;42.660;23.292;2022-12-26T15:33:18;68327.64;;;7.19;100.00
22930;BME280;11630;42.660;23.292;2022-12-26T15:35:57;68329.58;;;7.27;100.00
22930;BME280;11630;42.660;23.292;2022-12-26T15:38:39;68318.70;;;7.12;100.00
22930;BME280;11630;42.660;23.292;2022-12-26T15:44:07;68313.01;;;7.03;100.00
22930;BME280;11630;42.660;23.292;2022-12-26T15:46:48;68319.53;;;7.14;100.00
22930;BME280;11630;42.660;23.292;2022-12-26T15:52:09;68298.11;;;6.93;100.00
22930;BME280;11630;42.660;23.292;2022-12-26T15:57:37;68299.99;;;6.93;100.00
22930;BME280;11630;42.660;23.292;2022-12-26T16:00:24;68306.48;;;6.97;100.00
22930;BME280;11630;42.660;23.292;2022-12-26T16:05:50;68291.59;;;6.85;100.00